createdAt,value
2023-03-28T00:04:13.297Z,2.10
2023-03-28T00:09:15.289Z,2.10
2023-03-28T00:14:17.448Z,2.20
2023-03-28T00:19:25.523Z,2.10
2023-03-28T00:24:28.190Z,2.30
2023-03-28T00:29:30.402Z,2.30
2023-03-28T00:34:34.194Z,2.40
2023-03-28T00:39:36.380Z,2.40
2023-03-28T00:44:46.949Z,2.30
2023-03-28T00:49:53.192Z,2.40
2023-03-28T00:54:57.816Z,2.40
2023-03-28T00:59:59.860Z,2.40
2023-03-28T01:05:05.137Z,2.40
2023-03-28T01:10:08.595Z,2.50
2023-03-28T01:15:12.213Z,2.50
2023-03-28T01:20:32.764Z,2.40
2023-03-28T01:26:14.109Z,2.40
2023-03-28T01:31:44.182Z,2.50
2023-03-28T01:37:12.057Z,2.40
2023-03-28T01:42:22.030Z,2.40
2023-03-28T01:47:28.400Z,2.30
2023-03-28T01:52:37.581Z,2.20
2023-03-28T01:57:47.247Z,2.30
2023-03-28T02:02:54.064Z,2.40
2023-03-28T02:07:58.951Z,2.50
2023-03-28T02:13:04.894Z,2.50
2023-03-28T02:18:11.413Z,2.50
2023-03-28T02:23:18.957Z,2.50
2023-03-28T02:28:22.833Z,2.50
2023-03-28T02:33:38.005Z,2.50
2023-03-28T02:38:48.374Z,2.50
2023-03-28T02:44:04.485Z,2.50
2023-03-28T02:49:35.108Z,2.30
2023-03-28T02:54:51.866Z,2.00
2023-03-28T02:59:57.282Z,1.70
2023-03-28T03:05:01.996Z,1.50
2023-03-28T03:10:07.025Z,1.40
2023-03-28T03:15:10.725Z,1.40
2023-03-28T03:20:13.050Z,1.30
2023-03-28T03:25:16.630Z,1.40
2023-03-28T03:30:19.020Z,1.40
2023-03-28T03:35:21.292Z,1.40
2023-03-28T03:40:25.056Z,1.40
2023-03-28T03:45:27.270Z,1.30
2023-03-28T03:50:29.469Z,1.40
2023-03-28T03:55:33.812Z,1.50
2023-03-28T04:00:37.985Z,1.40
2023-03-28T04:05:42.529Z,1.30
2023-03-28T04:10:47.402Z,1.30
2023-03-28T04:15:49.645Z,1.40
2023-03-28T04:20:56.369Z,1.40
2023-03-28T04:26:01.741Z,1.50
2023-03-28T04:31:04.608Z,1.60
2023-03-28T04:36:08.207Z,1.60
2023-03-28T04:41:11.468Z,1.50
2023-03-28T04:46:13.596Z,1.60
2023-03-28T04:51:15.920Z,1.60
2023-03-28T04:56:19.288Z,1.60
2023-03-28T05:01:22.784Z,1.50
2023-03-28T05:06:27.674Z,1.60
2023-03-28T05:11:31.350Z,1.60
2023-03-28T05:16:33.751Z,1.60
2023-03-28T05:21:36.132Z,1.60
2023-03-28T05:26:39.824Z,1.60
2023-03-28T05:31:42.133Z,1.60
2023-03-28T05:36:44.693Z,1.70
2023-03-28T05:41:48.229Z,1.60
2023-03-28T05:46:50.359Z,1.40
2023-03-28T05:51:52.925Z,1.50
2023-03-28T05:56:56.870Z,1.50
2023-03-28T06:01:58.902Z,1.50
2023-03-28T06:07:03.185Z,1.60
2023-03-28T06:12:07.714Z,1.50
2023-03-28T06:17:09.975Z,1.50
2023-03-28T06:22:12.297Z,1.60
2023-03-28T06:27:15.701Z,1.60
2023-03-28T06:32:19.384Z,1.60
2023-03-28T06:37:21.727Z,1.70
2023-03-28T06:42:25.315Z,1.80
2023-03-28T06:47:27.683Z,1.70
2023-03-28T06:52:29.857Z,1.70
2023-03-28T06:57:33.722Z,1.70
2023-03-28T07:02:36.127Z,2.20
2023-03-28T07:07:38.532Z,2.70
2023-03-28T07:12:42.369Z,2.60
2023-03-28T07:17:44.412Z,2.60
2023-03-28T07:22:46.750Z,2.80
2023-03-28T07:27:50.651Z,3.60
2023-03-28T07:33:01.798Z,3.80
2023-03-28T07:38:14.105Z,4.10
2023-03-28T07:43:18.310Z,3.90
2023-03-28T07:48:20.722Z,4.40
2023-03-28T07:53:22.998Z,5.00
2023-03-28T07:58:26.853Z,6.00
2023-03-28T08:03:29.139Z,6.80
2023-03-28T08:08:32.169Z,6.10
2023-03-28T08:13:35.669Z,5.40
2023-03-28T08:18:37.748Z,5.80
2023-03-28T08:23:40.177Z,6.40
2023-03-28T08:28:43.886Z,6.30
2023-03-28T08:33:48.716Z,6.40
2023-03-28T08:38:52.015Z,6.30
2023-03-28T08:44:19.905Z,7.00
2023-03-28T08:49:22.207Z,6.80
2023-03-28T08:54:31.613Z,7.20
2023-03-28T08:59:44.558Z,7.80
2023-03-28T09:04:47.104Z,6.60
2023-03-28T09:10:08.012Z,8.10
2023-03-28T09:15:48.108Z,8.10
2023-03-28T09:20:54.774Z,8.20
2023-03-28T09:26:02.017Z,8.30
2023-03-28T09:31:10.133Z,8.40
2023-03-28T09:36:15.003Z,8.00
2023-03-28T09:41:21.604Z,8.20
2023-03-28T09:46:31.744Z,8.50
2023-03-28T09:51:34.055Z,8.70
2023-03-28T09:56:39.534Z,9.10
2023-03-28T10:01:45.658Z,8.90
2023-03-28T10:06:49.564Z,9.90
2023-03-28T10:11:55.007Z,11.30
2023-03-28T10:16:59.080Z,10.50
2023-03-28T10:22:06.492Z,10.30
2023-03-28T10:27:16.405Z,10.90
2023-03-28T10:32:28.238Z,11.00
2023-03-28T10:37:32.554Z,10.10
2023-03-28T10:42:45.377Z,10.60
2023-03-28T10:47:50.940Z,11.40
2023-03-28T10:53:01.047Z,11.90
2023-03-28T10:58:09.122Z,12.80
2023-03-28T11:03:27.377Z,11.50
2023-03-28T11:08:40.080Z,13.30
2023-03-28T11:13:49.675Z,12.90
2023-03-28T11:19:08.793Z,11.70
2023-03-28T11:24:25.395Z,11.50
2023-03-28T11:29:43.599Z,11.20
2023-03-28T11:34:59.142Z,11.20
2023-03-28T11:40:07.549Z,12.60
2023-03-28T11:45:37.433Z,12.00
2023-03-28T11:50:51.594Z,12.60
2023-03-28T11:55:59.609Z,11.70
2023-03-28T12:01:08.288Z,12.10
2023-03-28T12:06:18.257Z,12.80
2023-03-28T12:11:26.811Z,14.70
2023-03-28T12:16:35.438Z,13.40
2023-03-28T12:21:43.503Z,13.90
2023-03-28T12:27:03.546Z,14.80
2023-03-28T12:32:19.679Z,14.00
2023-03-28T12:37:30.320Z,13.40
2023-03-28T12:42:32.645Z,12.30
2023-03-28T12:47:38.792Z,13.60
2023-03-28T12:52:46.753Z,12.70
2023-03-28T12:57:49.876Z,12.20
2023-03-28T13:03:10.234Z,13.50
2023-03-28T13:08:23.015Z,13.00
2023-03-28T13:13:31.807Z,13.50
2023-03-28T13:18:35.171Z,13.20
2023-03-28T13:23:48.028Z,14.00
2023-03-28T13:28:52.172Z,13.90
2023-03-28T13:33:58.727Z,13.50
2023-03-28T13:39:22.514Z,12.90
2023-03-28T13:44:29.858Z,12.70
2023-03-28T13:49:42.653Z,13.10
2023-03-28T13:54:54.152Z,12.90
2023-03-28T13:59:59.786Z,13.90
2023-03-28T14:05:15.619Z,16.00
2023-03-28T14:10:30.807Z,15.20
2023-03-28T14:15:37.417Z,16.30
2023-03-28T14:20:40.476Z,16.20
2023-03-28T14:25:44.508Z,15.00
2023-03-28T14:30:46.783Z,15.30
2023-03-28T14:35:58.163Z,14.90
2023-03-28T14:41:10.314Z,16.00
2023-03-28T14:46:12.956Z,15.10
2023-03-28T14:51:16.065Z,13.60
2023-03-28T14:56:24.607Z,13.40
2023-03-28T15:01:28.267Z,14.50
2023-03-28T15:06:30.825Z,15.60
2023-03-28T15:11:37.347Z,16.20
2023-03-28T15:16:43.065Z,16.50
2023-03-28T15:21:53.095Z,15.00
2023-03-28T15:26:59.347Z,15.30
2023-03-28T15:32:05.314Z,14.10
2023-03-28T15:37:08.738Z,13.70
2023-03-28T15:42:39.148Z,13.70
2023-03-28T15:47:42.172Z,14.10
2023-03-28T15:52:45.226Z,13.30
2023-03-28T15:57:49.559Z,13.90
2023-03-28T16:02:51.918Z,13.60
2023-03-28T16:07:54.504Z,13.80
2023-03-28T16:12:58.463Z,13.50
2023-03-28T16:18:00.832Z,13.40
2023-03-28T16:23:03.233Z,13.30
2023-03-28T16:28:07.503Z,12.30
2023-03-28T16:33:09.599Z,12.00
2023-03-28T16:38:12.977Z,11.80
2023-03-28T16:43:17.158Z,11.90
2023-03-28T16:48:19.794Z,11.70
2023-03-28T16:53:22.441Z,11.30
2023-03-28T16:58:29.051Z,11.00
2023-03-28T17:03:32.412Z,10.70
2023-03-28T17:08:34.945Z,10.30
2023-03-28T17:13:39.576Z,10.10
2023-03-28T17:18:42.306Z,9.90
2023-03-28T17:23:46.935Z,9.80
2023-03-28T17:28:52.734Z,9.60
2023-03-28T17:33:57.259Z,9.40
2023-03-28T17:39:00.545Z,9.30
2023-03-28T17:44:05.707Z,9.20
2023-03-28T17:49:10.018Z,9.00
2023-03-28T17:54:13.786Z,8.90
2023-03-28T17:59:19.655Z,8.70
2023-03-28T18:04:24.120Z,8.60
2023-03-28T18:09:28.299Z,8.60
2023-03-28T18:14:33.245Z,8.40
2023-03-28T18:19:37.117Z,8.30
2023-03-28T18:24:39.801Z,8.10
2023-03-28T18:29:49.179Z,8.00
2023-03-28T18:34:53.256Z,7.90
2023-03-28T18:39:57.069Z,7.80
2023-03-28T18:45:06.639Z,7.60
2023-03-28T18:50:13.304Z,7.50
2023-03-28T18:55:16.990Z,7.40
2023-03-28T19:00:23.410Z,7.30
2023-03-28T19:05:27.018Z,7.20
2023-03-28T19:10:31.010Z,7.10
2023-03-28T19:15:36.176Z,7.20
2023-03-28T19:20:43.504Z,7.10
2023-03-28T19:25:47.098Z,7.10
2023-03-28T19:31:00.633Z,7.10
2023-03-28T19:36:06.609Z,7.00
2023-03-28T19:41:16.672Z,7.10
2023-03-28T19:46:28.109Z,7.10
2023-03-28T19:51:36.306Z,7.10
2023-03-28T19:56:40.854Z,7.00
2023-03-28T20:01:46.145Z,6.80
2023-03-28T20:06:50.899Z,6.70
2023-03-28T20:11:54.549Z,6.60
2023-03-28T20:16:59.961Z,6.70
2023-03-28T20:22:02.706Z,6.90
2023-03-28T20:27:06.618Z,6.90
2023-03-28T20:32:13.511Z,6.80
2023-03-28T20:37:18.162Z,6.80
2023-03-28T20:42:22.115Z,7.00
2023-03-28T20:47:29.054Z,7.00
2023-03-28T20:52:31.445Z,6.90
2023-03-28T20:57:36.094Z,6.90
2023-03-28T21:02:39.905Z,7.10
2023-03-28T21:07:44.166Z,7.20
2023-03-28T21:12:47.610Z,7.10
2023-03-28T21:17:53.834Z,7.20
2023-03-28T21:22:56.775Z,7.00
2023-03-28T21:27:59.477Z,7.00
2023-03-28T21:33:03.988Z,6.60
2023-03-28T21:38:06.392Z,6.80
2023-03-28T21:43:08.786Z,6.90
2023-03-28T21:48:12.822Z,7.00
2023-03-28T21:53:14.938Z,7.10
2023-03-28T21:58:17.517Z,6.80
2023-03-28T22:03:22.223Z,7.10
2023-03-28T22:08:25.128Z,7.30
2023-03-28T22:13:29.167Z,7.10
2023-03-28T22:18:34.100Z,7.50
2023-03-28T22:23:36.754Z,7.50
2023-03-28T22:28:39.273Z,7.30
2023-03-28T22:33:42.804Z,7.40
2023-03-28T22:38:45.415Z,7.40
2023-03-28T22:43:48.100Z,7.30
2023-03-28T22:48:54.561Z,7.20
2023-03-28T22:54:00.560Z,7.00
2023-03-28T22:59:02.664Z,6.80
2023-03-28T23:04:06.897Z,6.70
2023-03-28T23:09:09.777Z,6.60
2023-03-28T23:14:12.384Z,6.60
2023-03-28T23:19:16.484Z,6.60
2023-03-28T23:24:18.965Z,6.80
2023-03-28T23:29:21.588Z,6.70
2023-03-28T23:34:25.574Z,6.70
2023-03-28T23:39:27.995Z,6.80
2023-03-28T23:44:30.955Z,6.80
2023-03-28T23:49:34.576Z,6.90
2023-03-28T23:54:37.369Z,6.90
2023-03-28T23:59:39.406Z,7.20
